MAC711 GMMW-GMME
Flight info
| Callsign | MAC711 |
|---|---|
| Flight time | 0h 38m |
| Altitude | 27000 |
| Route | ARI UM372 FES/N0418F260 UA411 VARAS |
| Aircraft | A320/M-SDE3FGHIRWY/LB1 |
Departure
| Time | 2026-04-26 10:00 |
|---|---|
| Airport | Nador Al Aaroui International Airport (GMMW) |
Arrival
| Time | 2026-04-26 10:39 |
|---|---|
| Airport | Rabat-Salé Airport (GMME) |
| Time | Latitude | Longitude | Altitude | Speed | Heading |
|---|---|---|---|---|---|
| 2026-04-26 09:21 | 34.99264 | -3.02793 | 591 ft | 0 kts | 349° |
| 2026-04-26 09:24 | 34.99263 | -3.02793 | 591 ft | 0 kts | 349° |
| 2026-04-26 09:49 | 34.99262 | -3.02793 | 591 ft | 0 kts | 349° |
| 2026-04-26 09:50 | 34.99262 | -3.02792 | 591 ft | 0 kts | 349° |
| 2026-04-26 09:52 | 34.99267 | -3.02791 | 591 ft | 1 kts | 12° |
| 2026-04-26 09:52 | 34.99266 | -3.02783 | 591 ft | 1 kts | 94° |
| 2026-04-26 09:53 | 34.99249 | -3.02781 | 591 ft | 5 kts | 172° |
| 2026-04-26 09:53 | 34.99208 | -3.02778 | 591 ft | 6 kts | 187° |
| 2026-04-26 09:53 | 34.99187 | -3.02817 | 591 ft | 5 kts | 253° |
| 2026-04-26 09:53 | 34.99179 | -3.02856 | 591 ft | 4 kts | 256° |
| 2026-04-26 09:54 | 34.99173 | -3.02885 | 592 ft | 3 kts | 256° |
| 2026-04-26 09:54 | 34.99169 | -3.02905 | 592 ft | 2 kts | 256° |
| 2026-04-26 09:54 | 34.99155 | -3.02938 | 592 ft | 7 kts | 224° |
| 2026-04-26 09:54 | 34.99094 | -3.02940 | 592 ft | 12 kts | 167° |
| 2026-04-26 09:55 | 34.99007 | -3.02917 | 592 ft | 12 kts | 168° |
| 2026-04-26 09:55 | 34.98926 | -3.02913 | 591 ft | 11 kts | 211° |
| 2026-04-26 09:55 | 34.98893 | -3.02989 | 592 ft | 9 kts | 256° |
| 2026-04-26 09:55 | 34.98881 | -3.03058 | 593 ft | 7 kts | 258° |
| 2026-04-26 09:56 | 34.98873 | -3.03108 | 594 ft | 6 kts | 258° |
| 2026-04-26 09:56 | 34.98863 | -3.03165 | 595 ft | 9 kts | 258° |
| 2026-04-26 09:56 | 34.98848 | -3.03252 | 596 ft | 10 kts | 258° |
| 2026-04-26 09:56 | 34.98835 | -3.03328 | 597 ft | 9 kts | 258° |
| 2026-04-26 09:57 | 34.98819 | -3.03419 | 597 ft | 13 kts | 257° |
| 2026-04-26 09:57 | 34.98797 | -3.03544 | 598 ft | 16 kts | 258° |
| 2026-04-26 09:57 | 34.98770 | -3.03690 | 599 ft | 19 kts | 256° |
| 2026-04-26 09:57 | 34.98739 | -3.03860 | 600 ft | 22 kts | 262° |
| 2026-04-26 09:58 | 34.98712 | -3.04033 | 600 ft | 20 kts | 257° |
| 2026-04-26 09:58 | 34.98685 | -3.04189 | 601 ft | 18 kts | 258° |
| 2026-04-26 09:58 | 34.98681 | -3.04324 | 602 ft | 10 kts | 286° |
| 2026-04-26 09:58 | 34.98674 | -3.04383 | 603 ft | 6 kts | 208° |
| 2026-04-26 09:59 | 34.98652 | -3.04373 | 603 ft | 3 kts | 123° |
| 2026-04-26 09:59 | 34.98654 | -3.04355 | 602 ft | 3 kts | 76° |
| 2026-04-26 09:59 | 34.98654 | -3.04354 | 602 ft | 0 kts | 76° |
| 2026-04-26 09:59 | 34.98655 | -3.04352 | 602 ft | 0 kts | 76° |
| 2026-04-26 10:00 | 34.98665 | -3.04298 | 602 ft | 27 kts | 78° |
| 2026-04-26 10:00 | 34.98758 | -3.03760 | 600 ft | 101 kts | 78° |
| 2026-04-26 10:00 | 34.98947 | -3.02687 | 613 ft | 154 kts | 76° |
| 2026-04-26 10:00 | 34.99156 | -3.01427 | 1370 ft | 150 kts | 77° |
| 2026-04-26 10:01 | 34.99371 | -3.00188 | 2135 ft | 149 kts | 76° |
| 2026-04-26 10:01 | 34.99589 | -2.98956 | 2847 ft | 149 kts | 78° |
| 2026-04-26 10:01 | 34.99800 | -2.97718 | 3567 ft | 149 kts | 79° |
| 2026-04-26 10:01 | 34.99859 | -2.96424 | 4146 ft | 162 kts | 96° |
| 2026-04-26 10:02 | 34.99569 | -2.95004 | 4537 ft | 184 kts | 113° |
| 2026-04-26 10:02 | 34.98828 | -2.93615 | 4817 ft | 210 kts | 133° |
| 2026-04-26 10:02 | 34.97583 | -2.92564 | 5392 ft | 223 kts | 156° |
| 2026-04-26 10:02 | 34.96070 | -2.92160 | 6293 ft | 226 kts | 179° |
| 2026-04-26 10:03 | 34.94517 | -2.92511 | 7129 ft | 230 kts | 202° |
| 2026-04-26 10:03 | 34.93207 | -2.93650 | 7944 ft | 236 kts | 229° |
| 2026-04-26 10:03 | 34.92206 | -2.95245 | 8780 ft | 238 kts | 232° |
| 2026-04-26 10:03 | 34.91217 | -2.96876 | 9675 ft | 240 kts | 233° |
| 2026-04-26 10:04 | 34.90216 | -2.98536 | 10383 ft | 251 kts | 233° |
| 2026-04-26 10:04 | 34.89228 | -3.00411 | 10751 ft | 275 kts | 242° |
| 2026-04-26 10:04 | 34.88450 | -3.02651 | 11089 ft | 300 kts | 251° |
| 2026-04-26 10:04 | 34.87661 | -3.05106 | 11374 ft | 324 kts | 242° |
| 2026-04-26 10:05 | 34.86529 | -3.07562 | 11844 ft | 339 kts | 240° |
| 2026-04-26 10:05 | 34.85348 | -3.10073 | 12584 ft | 344 kts | 240° |
| 2026-04-26 10:05 | 34.84146 | -3.12614 | 13392 ft | 348 kts | 240° |
| 2026-04-26 10:05 | 34.82927 | -3.15182 | 14135 ft | 353 kts | 240° |
| 2026-04-26 10:06 | 34.81691 | -3.17778 | 14824 ft | 357 kts | 241° |
| 2026-04-26 10:06 | 34.80441 | -3.20408 | 15510 ft | 361 kts | 241° |
| 2026-04-26 10:06 | 34.79181 | -3.23067 | 16195 ft | 365 kts | 241° |
| 2026-04-26 10:06 | 34.77911 | -3.25753 | 16873 ft | 369 kts | 241° |
| 2026-04-26 10:07 | 34.76626 | -3.28472 | 17537 ft | 373 kts | 241° |
| 2026-04-26 10:07 | 34.75328 | -3.31225 | 18196 ft | 377 kts | 241° |
| 2026-04-26 10:07 | 34.74013 | -3.34007 | 18794 ft | 381 kts | 241° |
| 2026-04-26 10:07 | 34.72683 | -3.36814 | 19378 ft | 385 kts | 241° |
| 2026-04-26 10:08 | 34.71339 | -3.39639 | 19941 ft | 388 kts | 241° |
| 2026-04-26 10:08 | 34.69983 | -3.42488 | 20521 ft | 391 kts | 241° |
| 2026-04-26 10:08 | 34.68617 | -3.45360 | 21088 ft | 394 kts | 241° |
| 2026-04-26 10:08 | 34.67240 | -3.48254 | 21643 ft | 397 kts | 241° |
| 2026-04-26 10:09 | 34.65851 | -3.51172 | 22190 ft | 401 kts | 241° |
| 2026-04-26 10:09 | 34.64449 | -3.54111 | 22729 ft | 404 kts | 241° |
| 2026-04-26 10:09 | 34.63035 | -3.57076 | 23266 ft | 407 kts | 241° |
| 2026-04-26 10:09 | 34.61609 | -3.60064 | 23758 ft | 410 kts | 241° |
| 2026-04-26 10:10 | 34.60174 | -3.63068 | 24199 ft | 413 kts | 241° |
| 2026-04-26 10:10 | 34.58726 | -3.66091 | 24644 ft | 415 kts | 241° |
| 2026-04-26 10:10 | 34.57271 | -3.69129 | 25093 ft | 417 kts | 242° |
| 2026-04-26 10:10 | 34.55812 | -3.72180 | 25526 ft | 419 kts | 242° |
| 2026-04-26 10:11 | 34.54347 | -3.75242 | 25963 ft | 421 kts | 242° |
| 2026-04-26 10:11 | 34.52868 | -3.78321 | 26390 ft | 423 kts | 242° |
| 2026-04-26 10:11 | 34.51382 | -3.81416 | 26815 ft | 425 kts | 242° |
| 2026-04-26 10:11 | 34.49888 | -3.84523 | 27223 ft | 427 kts | 242° |
| 2026-04-26 10:12 | 34.48389 | -3.87635 | 27660 ft | 429 kts | 242° |
| 2026-04-26 10:12 | 34.46898 | -3.90728 | 28083 ft | 431 kts | 242° |
| 2026-04-26 10:12 | 34.45382 | -3.93871 | 28509 ft | 433 kts | 242° |
| 2026-04-26 10:12 | 34.43858 | -3.97027 | 28910 ft | 435 kts | 243° |
| 2026-04-26 10:13 | 34.42325 | -4.00197 | 29301 ft | 437 kts | 243° |
| 2026-04-26 10:13 | 34.40786 | -4.03379 | 29674 ft | 438 kts | 243° |
| 2026-04-26 10:13 | 34.39241 | -4.06573 | 30036 ft | 440 kts | 243° |
| 2026-04-26 10:13 | 34.37689 | -4.09779 | 30358 ft | 442 kts | 243° |
| 2026-04-26 10:14 | 34.36134 | -4.12990 | 30673 ft | 444 kts | 243° |
| 2026-04-26 10:14 | 34.34569 | -4.16222 | 30960 ft | 445 kts | 243° |
| 2026-04-26 10:14 | 34.31486 | -4.22555 | 31025 ft | 426 kts | 243° |
| 2026-04-26 10:15 | 34.28500 | -4.28683 | 31015 ft | 421 kts | 243° |
| 2026-04-26 10:15 | 34.25536 | -4.34776 | 31011 ft | 420 kts | 243° |
| 2026-04-26 10:16 | 34.22564 | -4.40867 | 31003 ft | 420 kts | 243° |
| 2026-04-26 10:16 | 34.19588 | -4.46944 | 30991 ft | 420 kts | 243° |
| 2026-04-26 10:17 | 34.16610 | -4.53018 | 30983 ft | 420 kts | 243° |
| 2026-04-26 10:17 | 34.13634 | -4.59083 | 30977 ft | 420 kts | 243° |
| 2026-04-26 10:18 | 34.10657 | -4.65136 | 30973 ft | 420 kts | 242° |
| 2026-04-26 10:18 | 34.07675 | -4.71183 | 30974 ft | 419 kts | 242° |
| 2026-04-26 10:19 | 34.04689 | -4.77239 | 30973 ft | 420 kts | 242° |
| 2026-04-26 10:19 | 34.01701 | -4.83289 | 30979 ft | 420 kts | 242° |
| 2026-04-26 10:20 | 33.99216 | -4.88312 | 30982 ft | 420 kts | 242° |
| 2026-04-26 10:20 | 33.95704 | -4.95385 | 30983 ft | 421 kts | 242° |
| 2026-04-26 10:21 | 33.93535 | -5.01825 | 30987 ft | 414 kts | 261° |
| 2026-04-26 10:21 | 33.93313 | -5.08737 | 31003 ft | 422 kts | 277° |
| 2026-04-26 10:22 | 33.93878 | -5.15858 | 30977 ft | 424 kts | 277° |
| 2026-04-26 10:22 | 33.94143 | -5.19349 | 30617 ft | 414 kts | 277° |
| 2026-04-26 10:22 | 33.94399 | -5.22793 | 29981 ft | 412 kts | 277° |
| 2026-04-26 10:23 | 33.94654 | -5.26224 | 29285 ft | 409 kts | 277° |
| 2026-04-26 10:23 | 33.94910 | -5.29626 | 28441 ft | 410 kts | 277° |
| 2026-04-26 10:23 | 33.95173 | -5.33073 | 27571 ft | 413 kts | 277° |
| 2026-04-26 10:23 | 33.95433 | -5.36511 | 26876 ft | 412 kts | 277° |
| 2026-04-26 10:24 | 33.95688 | -5.39935 | 26220 ft | 409 kts | 277° |
| 2026-04-26 10:24 | 33.95936 | -5.43294 | 25598 ft | 407 kts | 277° |
| 2026-04-26 10:24 | 33.96187 | -5.46721 | 24970 ft | 404 kts | 277° |
| 2026-04-26 10:24 | 33.96432 | -5.50036 | 24302 ft | 403 kts | 277° |
| 2026-04-26 10:25 | 33.96685 | -5.53419 | 23455 ft | 408 kts | 277° |
| 2026-04-26 10:25 | 33.96939 | -5.56823 | 22932 ft | 412 kts | 277° |
| 2026-04-26 10:25 | 33.97195 | -5.60308 | 22664 ft | 421 kts | 276° |
| 2026-04-26 10:25 | 33.97449 | -5.63818 | 22186 ft | 418 kts | 276° |
| 2026-04-26 10:26 | 33.97700 | -5.67320 | 21177 ft | 422 kts | 276° |
| 2026-04-26 10:26 | 33.97952 | -5.70847 | 20386 ft | 422 kts | 276° |
| 2026-04-26 10:26 | 33.98200 | -5.74344 | 19697 ft | 419 kts | 276° |
| 2026-04-26 10:26 | 33.98456 | -5.77845 | 19018 ft | 416 kts | 276° |
| 2026-04-26 10:27 | 33.98714 | -5.81307 | 18370 ft | 413 kts | 276° |
| 2026-04-26 10:27 | 33.98974 | -5.84742 | 17607 ft | 411 kts | 276° |
| 2026-04-26 10:27 | 33.99235 | -5.88210 | 16518 ft | 418 kts | 276° |
| 2026-04-26 10:27 | 33.99492 | -5.91692 | 15742 ft | 416 kts | 276° |
| 2026-04-26 10:28 | 33.99742 | -5.95160 | 15063 ft | 412 kts | 276° |
| 2026-04-26 10:28 | 33.99986 | -5.98584 | 14408 ft | 408 kts | 276° |
| 2026-04-26 10:28 | 34.00226 | -6.01973 | 13757 ft | 404 kts | 275° |
| 2026-04-26 10:28 | 34.00465 | -6.05332 | 13027 ft | 400 kts | 275° |
| 2026-04-26 10:29 | 34.00702 | -6.08651 | 12377 ft | 394 kts | 275° |
| 2026-04-26 10:29 | 34.00934 | -6.11906 | 11889 ft | 385 kts | 275° |
| 2026-04-26 10:29 | 34.01162 | -6.15072 | 11476 ft | 375 kts | 275° |
| 2026-04-26 10:29 | 34.01384 | -6.18176 | 10907 ft | 370 kts | 274° |
| 2026-04-26 10:30 | 34.01600 | -6.21245 | 10309 ft | 366 kts | 274° |
| 2026-04-26 10:30 | 34.01869 | -6.24275 | 9705 ft | 362 kts | 280° |
| 2026-04-26 10:30 | 34.02646 | -6.26810 | 9110 ft | 360 kts | 298° |
| 2026-04-26 10:30 | 34.04036 | -6.29285 | 8487 ft | 361 kts | 305° |
| 2026-04-26 10:31 | 34.05505 | -6.31724 | 7784 ft | 358 kts | 306° |
| 2026-04-26 10:31 | 34.06973 | -6.34139 | 7101 ft | 356 kts | 306° |
| 2026-04-26 10:31 | 34.08439 | -6.36536 | 6434 ft | 354 kts | 307° |
| 2026-04-26 10:31 | 34.09904 | -6.38919 | 5763 ft | 353 kts | 307° |
| 2026-04-26 10:32 | 34.11336 | -6.41245 | 5561 ft | 336 kts | 308° |
| 2026-04-26 10:32 | 34.12693 | -6.43455 | 5416 ft | 320 kts | 308° |
| 2026-04-26 10:32 | 34.13986 | -6.45566 | 5266 ft | 305 kts | 308° |
| 2026-04-26 10:32 | 34.15222 | -6.47583 | 5121 ft | 291 kts | 308° |
| 2026-04-26 10:33 | 34.16402 | -6.49508 | 4972 ft | 280 kts | 308° |
| 2026-04-26 10:33 | 34.17536 | -6.51356 | 4856 ft | 268 kts | 308° |
| 2026-04-26 10:33 | 34.18624 | -6.53135 | 4730 ft | 258 kts | 308° |
| 2026-04-26 10:33 | 34.19667 | -6.54838 | 4597 ft | 247 kts | 309° |
| 2026-04-26 10:34 | 34.20665 | -6.56470 | 4484 ft | 237 kts | 309° |
| 2026-04-26 10:34 | 34.21319 | -6.57541 | 4396 ft | 231 kts | 309° |
| 2026-04-26 10:34 | 34.22259 | -6.59082 | 4261 ft | 225 kts | 307° |
| 2026-04-26 10:34 | 34.22770 | -6.61422 | 3964 ft | 226 kts | 257° |
| 2026-04-26 10:35 | 34.22330 | -6.62563 | 3714 ft | 229 kts | 228° |
| 2026-04-26 10:35 | 34.21109 | -6.63792 | 3391 ft | 231 kts | 212° |
| 2026-04-26 10:35 | 34.19704 | -6.64695 | 3149 ft | 228 kts | 202° |
| 2026-04-26 10:35 | 34.18283 | -6.65557 | 2863 ft | 229 kts | 207° |
| 2026-04-26 10:36 | 34.16905 | -6.66531 | 2567 ft | 230 kts | 209° |
| 2026-04-26 10:36 | 34.15536 | -6.67536 | 2265 ft | 228 kts | 210° |
| 2026-04-26 10:36 | 34.14207 | -6.68513 | 1956 ft | 219 kts | 209° |
| 2026-04-26 10:36 | 34.12930 | -6.69450 | 1670 ft | 209 kts | 210° |
| 2026-04-26 10:37 | 34.11726 | -6.70333 | 1418 ft | 194 kts | 210° |
| 2026-04-26 10:37 | 34.10621 | -6.71144 | 1172 ft | 179 kts | 211° |
| 2026-04-26 10:37 | 34.09589 | -6.71899 | 955 ft | 168 kts | 211° |
| 2026-04-26 10:37 | 34.08611 | -6.72613 | 756 ft | 161 kts | 212° |
| 2026-04-26 10:38 | 34.07681 | -6.73298 | 576 ft | 153 kts | 212° |
| 2026-04-26 10:38 | 34.06784 | -6.73952 | 364 ft | 147 kts | 214° |
| 2026-04-26 10:38 | 34.05936 | -6.74575 | 261 ft | 132 kts | 211° |
| 2026-04-26 10:38 | 34.05292 | -6.75046 | 260 ft | 84 kts | 211° |
| 2026-04-26 10:39 | 34.04905 | -6.75331 | 261 ft | 56 kts | 212° |
| 2026-04-26 10:39 | 34.04595 | -6.75556 | 266 ft | 48 kts | 210° |
| 2026-04-26 10:39 | 34.04327 | -6.75652 | 269 ft | 22 kts | 176° |
| 2026-04-26 10:39 | 34.04187 | -6.75659 | 269 ft | 11 kts | 181° |
| 2026-04-26 10:40 | 34.04116 | -6.75647 | 269 ft | 9 kts | 134° |
| 2026-04-26 10:40 | 34.04084 | -6.75583 | 269 ft | 9 kts | 119° |
| 2026-04-26 10:40 | 34.04053 | -6.75522 | 269 ft | 8 kts | 121° |
| 2026-04-26 10:40 | 34.04025 | -6.75466 | 269 ft | 8 kts | 121° |
| 2026-04-26 10:41 | 34.03998 | -6.75414 | 269 ft | 7 kts | 121° |
| 2026-04-26 10:41 | 34.03974 | -6.75367 | 269 ft | 6 kts | 121° |
| 2026-04-26 10:41 | 34.03951 | -6.75320 | 269 ft | 8 kts | 121° |
| 2026-04-26 10:41 | 34.03911 | -6.75242 | 269 ft | 14 kts | 122° |
| 2026-04-26 10:42 | 34.03861 | -6.75144 | 268 ft | 13 kts | 121° |
| 2026-04-26 10:42 | 34.03815 | -6.75053 | 268 ft | 12 kts | 122° |
| 2026-04-26 10:42 | 34.03823 | -6.75003 | 268 ft | 4 kts | 24° |
| 2026-04-26 10:42 | 34.03821 | -6.74987 | 268 ft | 3 kts | 105° |
| 2026-04-26 10:43 | 34.03812 | -6.74942 | 268 ft | 5 kts | 100° |
| 2026-04-26 10:43 | 34.03815 | -6.74900 | 268 ft | 5 kts | 88° |
| 2026-04-26 10:43 | 34.03799 | -6.74894 | 268 ft | 3 kts | 172° |
| 2026-04-26 10:43 | 34.03774 | -6.74893 | 268 ft | 4 kts | 180° |
| 2026-04-26 10:44 | 34.03749 | -6.74893 | 268 ft | 4 kts | 179° |
| 2026-04-26 10:44 | 34.03741 | -6.74892 | 268 ft | 0 kts | 179° |
| 2026-04-26 10:44 | 34.03742 | -6.74892 | 268 ft | 0 kts | 179° |